Time;durP1;ratioP1;P1;durP2;ratioP2;P2;SDS_P1;SDS_P2;PMS_P1;PMS_P2;Temp;Humidity;BMP_temperature;BMP_pressure;BME280_temperature;BME280_humidity;BME280_pressure;Samples;Min_cycle;Max_cycle;Signal;HPM_P1;HPM_P2
2023/01/07 00:01:55;;;;;;;19.30;4.90;;;;;;;2.82;100.00;99861.89;102413;1291;59852;-66
2023/01/07 00:04:43;;;;;;;18.90;5.20;;;;;;;2.85;100.00;99860.34;102231;1299;60078;-65
2023/01/07 00:07:31;;;;;;;18.70;4.60;;;;;;;2.87;100.00;99858.70;102313;1298;74529;-68
2023/01/07 00:10:23;;;;;;;21.60;4.70;;;;;;;2.88;100.00;99856.68;102675;1299;68311;-66
2023/01/07 00:13:11;;;;;;;22.00;5.30;;;;;;;2.91;100.00;99859.17;102605;1299;72912;-68
2023/01/07 00:16:02;;;;;;;11.30;3.60;;;;;;;2.94;100.00;99857.31;102335;1297;60444;-65
2023/01/07 00:18:54;;;;;;;15.40;4.10;;;;;;;2.95;100.00;99865.98;102462;1295;60015;-68
2023/01/07 00:21:42;;;;;;;13.40;3.80;;;;;;;2.95;100.00;99867.73;102389;1299;74225;-68
2023/01/07 00:24:31;;;;;;;15.00;3.70;;;;;;;2.96;100.00;99870.17;102226;1299;68593;-69
2023/01/07 00:27:19;;;;;;;12.90;3.80;;;;;;;2.94;100.00;99868.88;102209;1299;70091;-70
2023/01/07 00:30:09;;;;;;;16.60;4.00;;;;;;;2.92;100.00;99872.81;101318;1302;1002848;-70
2023/01/07 00:33:03;;;;;;;20.00;4.10;;;;;;;2.91;100.00;99877.23;102186;1298;60010;-70
2023/01/07 00:35:59;;;;;;;18.00;3.80;;;;;;;2.91;100.00;99874.43;102184;1295;74137;-70
2023/01/07 00:38:53;;;;;;;19.40;4.20;;;;;;;2.90;100.00;99877.26;102230;1304;66478;-69
2023/01/07 00:44:50;;;;;;;13.40;3.80;;;;;;;2.88;100.00;99875.60;102488;1299;59653;-71
2023/01/07 00:47:38;;;;;;;20.10;4.30;;;;;;;2.88;100.00;99876.16;102275;1302;59740;-69
2023/01/07 00:50:35;;;;;;;21.50;4.20;;;;;;;2.88;100.00;99878.59;102192;1294;74108;-70
2023/01/07 00:53:24;;;;;;;14.40;3.50;;;;;;;2.88;100.00;99884.36;102563;1297;66054;-68
2023/01/07 00:56:14;;;;;;;13.20;3.60;;;;;;;2.88;100.00;99886.30;102120;1297;71034;-69
2023/01/07 00:59:03;;;;;;;16.60;4.30;;;;;;;2.88;100.00;99894.55;101961;1299;59798;-69
2023/01/07 01:01:51;;;;;;;17.30;3.70;;;;;;;2.89;100.00;99901.86;102348;1291;59654;-69
2023/01/07 01:04:40;;;;;;;13.90;3.30;;;;;;;2.92;100.00;99897.18;101942;1297;71999;-69
2023/01/07 01:07:28;;;;;;;16.90;5.00;;;;;;;2.94;100.00;99895.65;102258;1297;65602;-68
2023/01/07 01:10:19;;;;;;;10.40;3.10;;;;;;;2.95;100.00;99900.86;101977;1299;73694;-69
2023/01/07 01:13:12;;;;;;;14.30;3.60;;;;;;;2.96;100.00;99903.99;102486;1299;59801;-69
2023/01/07 01:16:01;;;;;;;14.20;3.20;;;;;;;2.96;100.00;99905.88;102294;1295;60067;-69
2023/01/07 01:18:50;;;;;;;15.70;3.50;;;;;;;2.97;100.00;99903.08;102248;1299;71887;-68
2023/01/07 01:21:40;;;;;;;17.10;3.80;;;;;;;2.99;100.00;99905.44;102334;1291;67966;-69
2023/01/07 01:24:28;;;;;;;14.10;3.20;;;;;;;2.99;100.00;99901.21;102533;1299;72584;-65
2023/01/07 01:27:17;;;;;;;17.70;3.40;;;;;;;2.98;100.00;99898.09;102289;1299;59778;-67
2023/01/07 01:30:07;;;;;;;19.10;4.50;;;;;;;2.99;100.00;99900.01;102446;1289;60921;-67
2023/01/07 01:32:57;;;;;;;11.70;2.80;;;;;;;2.97;100.00;99904.12;102250;1299;73859;-66
2023/01/07 01:35:46;;;;;;;18.40;4.70;;;;;;;2.96;100.00;99907.86;102352;1299;67590;-66
2023/01/07 01:38:34;;;;;;;13.70;4.20;;;;;;;2.97;100.00;99908.48;102138;1301;71724;-66
2023/01/07 01:41:24;;;;;;;21.00;4.80;;;;;;;2.98;100.00;99911.95;102492;1297;60943;-70
2023/01/07 01:44:42;;;;;;;20.10;4.50;;;;;;;3.00;100.00;99914.65;102303;1299;61142;-68
2023/01/07 01:47:53;;;;;;;18.20;4.20;;;;;;;3.00;100.00;99920.11;102735;1299;73662;-69
2023/01/07 01:50:47;;;;;;;17.50;3.70;;;;;;;3.01;100.00;99921.80;102617;1298;67885;-69
2023/01/07 01:53:36;;;;;;;23.20;4.40;;;;;;;3.02;100.00;99922.28;102232;1301;73696;-66
2023/01/07 01:56:35;;;;;;;16.20;4.20;;;;;;;3.03;100.00;99925.20;102491;1301;59625;-66
2023/01/07 01:59:29;;;;;;;17.70;4.20;;;;;;;3.04;100.00;99926.56;102213;1292;60270;-67
2023/01/07 02:02:27;;;;;;;13.60;4.30;;;;;;;3.05;100.00;99928.25;102269;1291;73232;-68
2023/01/07 02:05:17;;;;;;;16.80;4.50;;;;;;;3.04;100.00;99934.44;102076;1297;68795;-70
2023/01/07 02:08:06;;;;;;;18.50;4.30;;;;;;;3.04;100.00;99937.44;102000;1303;72702;-67
2023/01/07 02:11:03;;;;;;;19.30;4.30;;;;;;;3.05;100.00;99939.66;102295;1302;59772;-65
2023/01/07 02:14:23;;;;;;;18.60;4.20;;;;;;;3.06;100.00;99941.54;102250;1294;59543;-68
2023/01/07 02:17:32;;;;;;;19.60;3.90;;;;;;;3.05;100.00;99941.75;102362;1293;71987;-68
2023/01/07 02:20:46;;;;;;;20.40;4.20;;;;;;;3.05;100.00;99941.94;102044;1296;67825;-65
2023/01/07 02:24:07;;;;;;;14.20;4.00;;;;;;;3.04;100.00;99939.86;102241;1302;71821;-65
2023/01/07 02:27:43;;;;;;;17.60;4.40;;;;;;;3.04;100.00;99937.41;102633;1299;59791;-64
2023/01/07 02:31:06;;;;;;;17.60;4.10;;;;;;;3.03;100.00;99935.71;102362;1299;60350;-66
2023/01/07 02:34:41;;;;;;;12.30;3.10;;;;;;;3.03;100.00;99932.73;102415;1298;181484;-65
2023/01/07 02:38:22;;;;;;;15.60;4.00;;;;;;;3.00;100.00;99930.45;102467;1292;67368;-68
2023/01/07 02:41:45;;;;;;;13.90;3.80;;;;;;;2.97;100.00;99931.81;102390;1294;72374;-66
2023/01/07 02:44:43;;;;;;;18.90;4.40;;;;;;;2.94;100.00;99931.08;102122;1299;59720;-65
2023/01/07 02:47:37;;;;;;;14.30;4.00;;;;;;;2.93;100.00;99931.48;102439;1299;61611;-65
2023/01/07 02:50:25;;;;;;;19.60;4.50;;;;;;;2.92;100.00;99938.01;102435;1299;72137;-65
2023/01/07 02:53:18;;;;;;;18.50;4.50;;;;;;;2.93;100.00;99937.80;102371;1299;68702;-65
2023/01/07 02:56:42;;;;;;;12.60;3.50;;;;;;;2.92;100.00;99938.51;102361;1297;72676;-65
2023/01/07 02:59:50;;;;;;;20.70;4.80;;;;;;;2.93;100.00;99941.30;102457;1297;59543;-66
2023/01/07 03:03:24;;;;;;;20.90;4.40;;;;;;;2.95;100.00;99941.73;102355;1291;59678;-64
2023/01/07 03:07:08;;;;;;;16.00;4.10;;;;;;;2.95;100.00;99948.17;102403;1298;73059;-65
2023/01/07 03:10:11;;;;;;;12.60;3.90;;;;;;;2.96;100.00;99951.64;102408;1297;68341;-64
2023/01/07 03:13:22;;;;;;;16.20;3.90;;;;;;;2.96;100.00;99953.23;102399;1294;73745;-63
2023/01/07 03:16:54;;;;;;;14.10;3.90;;;;;;;2.96;100.00;99953.24;102410;1291;59695;-64
2023/01/07 03:19:50;;;;;;;15.70;4.00;;;;;;;2.95;100.00;99962.24;102492;1299;60179;-65
2023/01/07 03:22:41;;;;;;;15.00;3.90;;;;;;;2.94;100.00;99963.83;102412;1293;73378;-65
2023/01/07 03:25:34;;;;;;;21.10;4.20;;;;;;;2.94;100.00;99967.92;102322;1298;68927;-64
2023/01/07 03:28:28;;;;;;;17.80;4.10;;;;;;;2.94;100.00;99970.49;102310;1299;71585;-64
2023/01/07 03:31:20;;;;;;;15.50;3.90;;;;;;;2.96;100.00;99972.66;102397;1292;59681;-65
2023/01/07 03:34:15;;;;;;;19.70;4.80;;;;;;;3.01;100.00;99970.89;102382;1304;60235;-65
2023/01/07 03:37:14;;;;;;;18.00;4.00;;;;;;;3.04;100.00;99971.59;102415;1275;74050;-64
2023/01/07 03:40:08;;;;;;;16.90;4.40;;;;;;;3.10;100.00;99975.03;102451;1298;66401;-66
2023/01/07 03:43:00;;;;;;;18.80;4.40;;;;;;;3.11;100.00;99970.40;101999;1299;72654;-67
2023/01/07 03:45:51;;;;;;;18.70;4.10;;;;;;;3.12;100.00;99973.35;102471;1294;59661;-67
2023/01/07 03:48:40;;;;;;;16.30;5.50;;;;;;;3.12;100.00;99975.27;102304;1294;59793;-65
2023/01/07 03:51:29;;;;;;;17.90;4.70;;;;;;;3.11;100.00;99976.00;101763;1292;1002877;-66
2023/01/07 03:54:17;;;;;;;15.60;4.30;;;;;;;3.12;100.00;99984.60;102325;1297;68282;-66
2023/01/07 03:57:05;;;;;;;17.40;5.90;;;;;;;3.13;100.00;99983.83;102275;1299;73445;-66
2023/01/07 03:59:54;;;;;;;15.50;5.00;;;;;;;3.14;100.00;99983.41;102138;1288;59698;-67
2023/01/07 04:02:43;;;;;;;14.00;5.00;;;;;;;3.17;100.00;99987.33;102382;1299;60080;-66
2023/01/07 04:05:39;;;;;;;15.90;4.80;;;;;;;3.19;100.00;99984.55;102424;1298;73588;-66
2023/01/07 04:08:28;;;;;;;16.00;4.40;;;;;;;3.21;100.00;99986.59;102463;1291;68329;-66
2023/01/07 04:11:16;;;;;;;16.70;4.60;;;;;;;3.22;100.00;99986.67;102254;1299;72701;-66
2023/01/07 04:14:04;;;;;;;26.30;11.60;;;;;;;3.24;100.00;99991.31;102229;1299;61297;-65
2023/01/07 04:16:53;;;;;;;35.50;14.00;;;;;;;3.27;100.00;99995.23;102384;1291;60314;-65
2023/01/07 04:19:42;;;;;;;23.00;10.30;;;;;;;3.29;100.00;99993.73;102373;1298;74094;-64
2023/01/07 04:22:33;;;;;;;25.40;9.00;;;;;;;3.28;100.00;99992.88;102395;1288;67815;-65
2023/01/07 04:25:21;;;;;;;30.00;12.80;;;;;;;3.26;100.00;99990.02;102319;1297;72696;-65
2023/01/07 04:28:10;;;;;;;25.90;11.70;;;;;;;3.23;100.00;99990.84;102510;1292;59669;-64
2023/01/07 04:30:59;;;;;;;19.90;7.30;;;;;;;3.22;100.00;99990.55;102355;1291;61414;-64
2023/01/07 04:33:48;;;;;;;25.50;8.20;;;;;;;3.22;100.00;99989.83;102481;1298;73063;-65
2023/01/07 04:36:36;;;;;;;19.90;5.40;;;;;;;3.24;100.00;99988.38;102490;1291;67823;-66
2023/01/07 04:39:25;;;;;;;17.50;5.80;;;;;;;3.23;100.00;99987.15;102448;1295;73658;-65
2023/01/07 04:42:13;;;;;;;14.20;4.80;;;;;;;3.24;100.00;99992.72;102469;1289;59698;-67
2023/01/07 04:45:03;;;;;;;20.70;5.10;;;;;;;3.25;100.00;99990.94;102599;1291;61345;-65
2023/01/07 04:47:55;;;;;;;19.30;5.10;;;;;;;3.24;100.00;99985.88;102306;1286;73331;-66
2023/01/07 04:50:45;;;;;;;17.60;4.50;;;;;;;3.28;100.00;99982.56;102535;1292;68152;-68
2023/01/07 04:53:35;;;;;;;17.10;5.60;;;;;;;3.31;100.00;99974.69;102513;1299;74230;-64
2023/01/07 04:56:24;;;;;;;15.50;4.10;;;;;;;3.32;100.00;99971.83;102420;1297;59587;-66
2023/01/07 04:59:12;;;;;;;19.70;4.00;;;;;;;3.32;100.00;99971.84;103232;1291;59917;-68
2023/01/07 05:02:00;;;;;;;17.20;4.20;;;;;;;3.30;100.00;99980.17;102734;1297;73317;-66
2023/01/07 05:04:49;;;;;;;15.90;3.70;;;;;;;3.28;100.00;99985.21;102178;1298;66928;-68
2023/01/07 05:07:38;;;;;;;11.40;3.40;;;;;;;3.24;100.00;99986.42;102296;1297;72590;-68
2023/01/07 05:10:29;;;;;;;17.10;3.90;;;;;;;3.21;100.00;99983.05;101679;1295;1003349;-68
2023/01/07 05:13:21;;;;;;;12.70;3.60;;;;;;;3.17;100.00;99990.09;102453;1297;60365;-66
2023/01/07 05:16:09;;;;;;;15.90;3.90;;;;;;;3.11;100.00;99996.34;102264;1292;73958;-65
2023/01/07 05:18:58;;;;;;;11.60;3.70;;;;;;;3.04;100.00;99996.48;102392;1292;68015;-66
2023/01/07 05:21:47;;;;;;;12.70;3.70;;;;;;;2.98;100.00;99993.08;102589;1291;72618;-67
2023/01/07 05:24:36;;;;;;;13.80;4.10;;;;;;;2.98;100.00;99996.95;102357;1289;59836;-69
2023/01/07 05:27:25;;;;;;;11.50;3.10;;;;;;;2.95;100.00;99999.55;102471;1291;61402;-67
2023/01/07 05:30:13;;;;;;;14.20;4.20;;;;;;;2.94;100.00;100002.77;102499;1295;73916;-68
2023/01/07 05:33:05;;;;;;;11.10;3.20;;;;;;;2.93;100.00;100002.27;102493;1292;67147;-69
2023/01/07 05:35:55;;;;;;;16.70;4.20;;;;;;;2.95;100.00;100007.48;102315;1299;73275;-67
2023/01/07 05:38:43;;;;;;;15.00;3.40;;;;;;;2.96;100.00;100013.50;102324;1289;60770;-66
2023/01/07 05:41:31;;;;;;;11.90;3.60;;;;;;;2.98;100.00;100011.34;102261;1299;60354;-67
2023/01/07 05:44:20;;;;;;;14.10;3.50;;;;;;;3.00;100.00;100011.39;102476;1291;72815;-66
2023/01/07 05:47:08;;;;;;;11.80;3.00;;;;;;;3.02;100.00;100009.55;102303;1289;68085;-68
2023/01/07 05:49:58;;;;;;;18.60;3.80;;;;;;;3.03;100.00;100010.90;102408;1294;72718;-68
2023/01/07 05:52:46;;;;;;;11.10;3.00;;;;;;;3.04;100.00;100013.66;102552;1295;59596;-68
2023/01/07 05:55:37;;;;;;;12.90;3.10;;;;;;;3.01;100.00;100013.28;102365;1299;59609;-66
2023/01/07 05:58:26;;;;;;;10.40;3.20;;;;;;;2.99;100.00;100013.21;102410;1283;74109;-67
2023/01/07 06:01:14;;;;;;;10.40;3.30;;;;;;;2.96;100.00;100014.41;102460;1291;67599;-67
2023/01/07 06:04:06;;;;;;;10.70;3.30;;;;;;;2.94;100.00;100019.59;102294;1299;72629;-65
2023/01/07 06:06:55;;;;;;;11.50;3.10;;;;;;;2.89;100.00;100017.88;102137;1298;59756;-67
2023/01/07 06:09:43;;;;;;;12.40;3.40;;;;;;;2.85;100.00;100020.88;102406;1299;60106;-66
2023/01/07 06:12:32;;;;;;;17.60;4.20;;;;;;;2.81;100.00;100020.73;102218;1294;74042;-67
2023/01/07 06:15:21;;;;;;;12.20;3.20;;;;;;;2.79;100.00;100020.46;102333;1290;68333;-68
2023/01/07 06:18:10;;;;;;;12.10;3.20;;;;;;;2.77;100.00;100021.45;102148;1297;73688;-66
2023/01/07 06:20:59;;;;;;;15.60;3.60;;;;;;;2.76;100.00;100027.94;102275;1295;59584;-67
2023/01/07 06:23:47;;;;;;;14.40;3.30;;;;;;;2.76;100.00;100028.64;102530;1289;60644;-68
2023/01/07 06:26:36;;;;;;;12.10;3.10;;;;;;;2.78;100.00;100035.75;102350;1292;71958;-65
2023/01/07 06:29:25;;;;;;;14.70;3.70;;;;;;;2.80;100.00;100038.63;102372;1299;68926;-67
2023/01/07 06:32:13;;;;;;;11.00;2.80;;;;;;;2.82;100.00;100034.85;102105;1299;73668;-66
2023/01/07 06:35:02;;;;;;;12.00;3.10;;;;;;;2.83;100.00;100035.33;102304;1292;60573;-68
2023/01/07 06:37:50;;;;;;;11.10;3.10;;;;;;;2.86;100.00;100044.83;102375;1291;60334;-66
2023/01/07 06:40:43;;;;;;;11.20;2.70;;;;;;;2.87;100.00;100047.40;102699;1297;72796;-68
2023/01/07 06:43:31;;;;;;;14.10;2.80;;;;;;;2.88;100.00;100047.88;102449;1298;67207;-69
2023/01/07 06:46:20;;;;;;;9.70;2.60;;;;;;;2.88;100.00;100052.25;102139;1291;73441;-68
2023/01/07 06:49:09;;;;;;;9.40;2.50;;;;;;;2.87;100.00;100059.52;102677;1291;59770;-70
2023/01/07 06:51:57;;;;;;;10.10;3.00;;;;;;;2.81;100.00;100055.58;102396;1297;60421;-66
2023/01/07 06:54:45;;;;;;;13.20;3.30;;;;;;;2.75;100.00;100058.14;102458;1299;74110;-66
2023/01/07 06:57:36;;;;;;;10.90;3.60;;;;;;;2.66;100.00;100059.07;102366;1292;68053;-67
2023/01/07 07:00:24;;;;;;;17.20;3.60;;;;;;;2.58;100.00;100057.83;102293;1298;73123;-66
2023/01/07 07:03:13;;;;;;;14.00;3.70;;;;;;;2.52;100.00;100058.98;102436;1296;59721;-67
2023/01/07 07:06:03;;;;;;;13.80;4.70;;;;;;;2.47;100.00;100060.27;102394;1291;60311;-67
2023/01/07 07:08:51;;;;;;;11.30;3.30;;;;;;;2.42;100.00;100065.21;102415;1292;72129;-66
2023/01/07 07:11:39;;;;;;;13.10;4.00;;;;;;;2.37;100.00;100062.29;102430;1297;68127;-67
2023/01/07 07:14:28;;;;;;;16.00;3.80;;;;;;;2.32;100.00;100061.24;102329;1291;71905;-67
2023/01/07 07:17:16;;;;;;;12.20;3.30;;;;;;;2.29;100.00;100061.39;102086;1295;59644;-67
2023/01/07 07:20:06;;;;;;;15.00;4.10;;;;;;;2.27;100.00;100061.13;102382;1289;59651;-66
2023/01/07 07:22:54;;;;;;;15.10;4.00;;;;;;;2.26;100.00;100067.46;102458;1291;74206;-67
2023/01/07 07:25:42;;;;;;;15.70;3.90;;;;;;;2.26;100.00;100073.92;102373;1298;67014;-66
2023/01/07 07:28:31;;;;;;;11.60;4.60;;;;;;;2.27;100.00;100075.48;102392;1292;73612;-66
2023/01/07 07:31:20;;;;;;;10.40;3.70;;;;;;;2.29;100.00;100078.19;102435;1291;59646;-68
2023/01/07 07:34:09;;;;;;;13.50;4.10;;;;;;;2.31;100.00;100080.38;102363;1298;60211;-66
2023/01/07 07:36:57;;;;;;;12.10;3.60;;;;;;;2.35;100.00;100082.67;102329;1298;74096;-68
2023/01/07 07:39:46;;;;;;;11.40;3.80;;;;;;;2.38;100.00;100085.33;102325;1295;68590;-67
2023/01/07 07:42:36;;;;;;;11.70;4.00;;;;;;;2.42;100.00;100092.73;102376;1291;73533;-67
2023/01/07 07:45:44;;;;;;;16.50;3.90;;;;;;;2.44;100.00;100092.95;102484;1297;59651;-67
2023/01/07 07:48:33;;;;;;;13.80;4.20;;;;;;;2.48;100.00;100095.05;102374;1292;59570;-67
2023/01/07 07:51:22;;;;;;;13.30;3.90;;;;;;;2.53;100.00;100097.27;102089;1291;72802;-69
2023/01/07 07:54:11;;;;;;;12.50;4.10;;;;;;;2.62;100.00;100091.65;102518;1298;68590;-70
2023/01/07 07:57:00;;;;;;;13.30;4.00;;;;;;;2.72;100.00;100094.36;102287;1299;72576;-67
2023/01/07 07:59:48;;;;;;;17.90;5.80;;;;;;;2.79;100.00;100092.64;102353;1298;60075;-66
2023/01/07 08:02:36;;;;;;;12.70;4.50;;;;;;;2.86;100.00;100093.20;102097;1291;61145;-66
2023/01/07 08:05:26;;;;;;;15.80;4.70;;;;;;;2.96;100.00;100096.61;102395;1292;74187;-67
2023/01/07 08:08:14;;;;;;;15.20;4.60;;;;;;;3.06;100.00;100100.73;102340;1289;67805;-70
2023/01/07 08:11:05;;;;;;;13.30;4.90;;;;;;;3.15;100.00;100103.08;102128;1297;73211;-67
2023/01/07 08:13:53;;;;;;;13.30;4.20;;;;;;;3.22;100.00;100106.11;102349;1297;59774;-69
2023/01/07 08:16:42;;;;;;;12.20;3.80;;;;;;;3.27;100.00;100105.89;102366;1291;60319;-66
2023/01/07 08:19:31;;;;;;;13.50;4.10;;;;;;;3.33;100.00;100109.09;102348;1292;72996;-66
2023/01/07 08:22:20;;;;;;;12.90;3.70;;;;;;;3.40;100.00;100105.08;102506;1297;68255;-68
2023/01/07 08:25:09;;;;;;;15.10;3.90;;;;;;;3.47;100.00;100107.21;102368;1299;73623;-66
2023/01/07 08:27:58;;;;;;;13.70;4.10;;;;;;;3.53;99.89;100108.84;101945;1299;59760;-71
2023/01/07 08:30:49;;;;;;;17.20;3.90;;;;;;;3.65;99.27;100106.02;102309;1299;61169;-68
2023/01/07 08:33:38;;;;;;;14.90;4.60;;;;;;;4.28;99.93;100104.80;102401;1292;72409;-69
2023/01/07 08:36:27;;;;;;;16.60;4.50;;;;;;;5.72;99.19;100096.05;102285;1297;67792;-65
2023/01/07 08:39:15;;;;;;;14.40;4.50;;;;;;;7.05;95.07;100092.42;102145;1291;72598;-68
2023/01/07 08:42:04;;;;;;;12.90;4.30;;;;;;;8.05;88.82;100097.70;102551;1298;60370;-70
2023/01/07 08:44:52;;;;;;;12.70;4.30;;;;;;;9.09;84.75;100097.11;102449;1292;59882;-66
2023/01/07 08:47:45;;;;;;;13.20;4.20;;;;;;;10.00;78.02;100093.36;102497;1298;72099;-67
2023/01/07 08:50:33;;;;;;;12.80;4.80;;;;;;;10.49;75.77;100092.90;102308;1292;68530;-67
2023/01/07 08:53:22;;;;;;;15.90;4.90;;;;;;;11.27;73.07;100093.05;102465;1295;71419;-69
2023/01/07 08:56:11;;;;;;;13.50;4.40;;;;;;;12.08;68.84;100095.36;102285;1297;59645;-68
2023/01/07 08:59:02;;;;;;;13.50;4.50;;;;;;;12.40;66.41;100092.89;102244;1299;59680;-71
2023/01/07 09:01:51;;;;;;;15.00;5.30;;;;;;;11.98;62.36;100087.70;102406;1299;73587;-68
2023/01/07 09:04:39;;;;;;;13.10;5.50;;;;;;;11.69;62.39;100086.27;102422;1289;66454;-68
2023/01/07 09:07:27;;;;;;;21.20;8.20;;;;;;;11.84;62.79;100088.77;102492;1291;73684;-66
2023/01/07 09:10:16;;;;;;;17.80;7.00;;;;;;;12.19;61.28;100090.58;102498;1291;59708;-66
2023/01/07 09:13:05;;;;;;;17.30;6.50;;;;;;;12.60;58.44;100095.79;102410;1299;59851;-69
2023/01/07 09:15:53;;;;;;;16.70;6.40;;;;;;;12.99;57.68;100102.79;102170;1299;73869;-66
2023/01/07 09:18:41;;;;;;;14.40;5.70;;;;;;;12.95;55.16;100113.09;102433;1297;68074;-67
2023/01/07 09:21:32;;;;;;;15.10;6.30;;;;;;;12.77;56.30;100114.83;102477;1291;73688;-67
2023/01/07 09:24:20;;;;;;;14.90;6.40;;;;;;;12.49;53.96;100107.02;102491;1292;59767;-67
2023/01/07 09:27:08;;;;;;;15.80;6.60;;;;;;;12.32;54.44;100112.98;102407;1289;59986;-67
2023/01/07 09:29:57;;;;;;;18.40;5.90;;;;;;;12.29;54.40;100122.95;102278;1298;73870;-69
2023/01/07 09:32:45;;;;;;;16.40;5.80;;;;;;;11.88;54.64;100123.88;102397;1299;67943;-68
2023/01/07 09:35:34;;;;;;;14.50;5.80;;;;;;;11.85;55.76;100123.05;102381;1295;73671;-67
2023/01/07 09:38:25;;;;;;;12.40;4.90;;;;;;;11.77;55.59;100119.38;102176;1291;59650;-66
2023/01/07 09:41:46;;;;;;;13.90;5.90;;;;;;;11.67;55.66;100115.95;102392;1297;59827;-69
2023/01/07 09:44:56;;;;;;;13.90;5.20;;;;;;;10.94;56.54;100118.55;102181;1299;73872;-65
2023/01/07 09:47:52;;;;;;;13.20;5.70;;;;;;;9.72;59.92;100122.86;102237;1291;67603;-64
2023/01/07 09:50:54;;;;;;;14.70;6.10;;;;;;;8.85;62.85;100129.41;102348;1299;73192;-65
2023/01/07 09:53:53;;;;;;;14.10;5.70;;;;;;;8.15;65.74;100129.91;102455;1283;59762;-68
2023/01/07 09:56:42;;;;;;;13.70;6.20;;;;;;;7.39;68.60;100129.82;102386;1299;60882;-68
2023/01/07 09:59:32;;;;;;;16.70;6.80;;;;;;;6.87;71.09;100134.45;102379;1295;71733;-66
2023/01/07 10:02:45;;;;;;;15.20;7.20;;;;;;;6.49;73.00;100136.58;102279;1295;68598;-66
2023/01/07 10:06:21;;;;;;;19.10;7.70;;;;;;;6.14;74.67;100136.10;102386;1295;72168;-66
2023/01/07 10:09:54;;;;;;;18.70;7.60;;;;;;;5.77;77.00;100135.76;102279;1299;59737;-66
2023/01/07 10:13:05;;;;;;;20.00;8.00;;;;;;;5.48;78.86;100134.20;100924;1295;1003516;-66
2023/01/07 10:16:05;;;;;;;17.60;8.00;;;;;;;5.28;80.15;100136.51;102470;1297;72757;-65
2023/01/07 10:19:18;;;;;;;18.90;7.90;;;;;;;5.17;81.21;100131.86;102472;1297;66840;-67
2023/01/07 10:22:28;;;;;;;22.40;8.90;;;;;;;5.06;81.98;100124.89;102437;1289;74059;-69
2023/01/07 10:25:31;;;;;;;18.40;8.10;;;;;;;4.96;82.72;100113.61;102506;1297;59571;-69
2023/01/07 10:28:38;;;;;;;16.80;8.00;;;;;;;4.93;83.41;100111.11;102522;1298;61363;-66
2023/01/07 10:31:28;;;;;;;16.60;7.30;;;;;;;4.95;84.06;100105.92;102416;1291;71905;-65
2023/01/07 10:34:28;;;;;;;21.10;8.00;;;;;;;5.02;83.84;100097.47;102277;1301;66902;-67
2023/01/07 10:37:40;;;;;;;19.00;8.60;;;;;;;5.17;83.64;100092.80;102222;1287;73695;-65
2023/01/07 10:40:43;;;;;;;20.90;8.80;;;;;;;5.24;83.23;100087.50;102146;1299;59751;-68
2023/01/07 10:44:03;;;;;;;26.30;10.80;;;;;;;5.44;83.09;100086.74;102421;1298;59737;-68
2023/01/07 10:47:22;;;;;;;20.00;10.00;;;;;;;5.74;82.26;100080.64;101686;1291;1002964;-64
2023/01/07 10:50:25;;;;;;;23.80;10.50;;;;;;;6.09;81.26;100083.92;102471;1299;68928;-65
2023/01/07 10:53:50;;;;;;;22.90;9.90;;;;;;;6.50;79.56;100086.44;102503;1291;72931;-69
2023/01/07 10:56:56;;;;;;;24.10;10.30;;;;;;;7.04;76.96;100081.40;102329;1299;59768;-66
2023/01/07 10:59:52;;;;;;;20.20;10.10;;;;;;;7.43;75.62;100078.43;102491;1291;60331;-68
2023/01/07 11:03:15;;;;;;;21.50;10.30;;;;;;;7.80;73.56;100073.20;102360;1297;73404;-66
2023/01/07 11:06:11;;;;;;;23.30;10.80;;;;;;;8.19;71.45;100072.70;102388;1289;68784;-66
2023/01/07 11:09:05;;;;;;;23.50;10.90;;;;;;;8.75;69.39;100068.75;102329;1298;73254;-67
2023/01/07 11:11:55;;;;;;;22.00;10.50;;;;;;;9.39;67.31;100062.11;102409;1292;59580;-65
2023/01/07 11:14:45;;;;;;;24.60;11.60;;;;;;;9.65;65.92;100059.66;102282;1282;60179;-66
2023/01/07 11:17:58;;;;;;;22.70;11.70;;;;;;;9.77;64.06;100055.02;102366;1291;72528;-68
2023/01/07 11:20:59;;;;;;;26.70;12.40;;;;;;;10.38;61.17;100050.98;102628;1298;67862;-65
2023/01/07 11:23:47;;;;;;;31.10;15.90;;;;;;;11.13;59.30;100037.48;102422;1291;72400;-66
2023/01/07 11:26:35;;;;;;;33.40;14.50;;;;;;;11.93;57.46;100038.67;102113;1292;59773;-67
2023/01/07 11:29:29;;;;;;;30.90;14.20;;;;;;;12.39;56.00;100037.98;102404;1291;60680;-68
2023/01/07 11:32:26;;;;;;;26.80;12.40;;;;;;;12.70;55.21;100033.16;102296;1298;73430;-69
2023/01/07 11:35:14;;;;;;;28.10;12.90;;;;;;;12.35;54.49;100033.75;102335;1299;68093;-66
2023/01/07 11:38:29;;;;;;;22.90;11.80;;;;;;;11.57;55.67;100035.38;102418;1291;73106;-65
2023/01/07 11:41:25;;;;;;;23.50;11.10;;;;;;;10.66;57.69;100030.20;102383;1297;59746;-66
2023/01/07 11:44:15;;;;;;;22.00;10.30;;;;;;;11.12;57.58;100023.73;102564;1299;60432;-67
2023/01/07 11:47:04;;;;;;;22.00;11.50;;;;;;;11.75;56.07;100023.22;102404;1299;73636;-64
2023/01/07 11:49:52;;;;;;;21.40;10.60;;;;;;;12.07;54.82;100025.02;102302;1299;67694;-66
2023/01/07 11:52:53;;;;;;;23.00;11.40;;;;;;;12.35;55.27;100022.67;102366;1297;71820;-69
2023/01/07 11:56:20;;;;;;;23.30;11.60;;;;;;;12.01;54.51;100021.78;102442;1297;59627;-68
2023/01/07 11:59:11;;;;;;;20.90;10.60;;;;;;;10.76;56.38;100022.53;102252;1299;60055;-67
2023/01/07 12:01:59;;;;;;;21.70;10.80;;;;;;;9.80;58.78;100027.90;102457;1297;74188;-70
2023/01/07 12:04:49;;;;;;;21.70;11.40;;;;;;;8.90;61.85;100031.77;102197;1298;67687;-64
2023/01/07 12:07:43;;;;;;;21.80;10.50;;;;;;;8.17;64.43;100041.56;102508;1297;73675;-68
2023/01/07 12:10:38;;;;;;;23.50;11.10;;;;;;;7.54;67.01;100047.73;102534;1297;59664;-65
2023/01/07 12:13:27;;;;;;;25.50;10.90;;;;;;;7.12;68.95;100047.16;102413;1298;60367;-69
2023/01/07 12:16:16;;;;;;;21.40;11.80;;;;;;;6.86;70.76;100043.84;102358;1299;72980;-66
2023/01/07 12:19:38;;;;;;;25.40;12.00;;;;;;;6.76;71.72;100043.47;102561;1292;68570;-68
2023/01/07 12:22:44;;;;;;;18.50;9.80;;;;;;;6.53;72.59;100041.34;102265;1291;72639;-68
2023/01/07 12:25:55;;;;;;;25.00;10.80;;;;;;;6.28;73.66;100045.85;102361;1299;59840;-67
2023/01/07 12:29:13;;;;;;;26.10;12.70;;;;;;;6.10;74.89;100044.23;102383;1298;60385;-65
2023/01/07 12:32:23;;;;;;;27.10;12.50;;;;;;;6.32;75.33;100039.08;102312;1290;74011;-67
2023/01/07 12:35:26;;;;;;;30.20;13.30;;;;;;;6.42;75.22;100043.35;102422;1294;67576;-67
2023/01/07 12:38:24;;;;;;;26.30;12.80;;;;;;;6.43;75.17;100035.73;102331;1296;73158;-65
2023/01/07 12:41:26;;;;;;;27.80;12.60;;;;;;;6.34;75.27;100035.23;102348;1299;60051;-67
2023/01/07 12:44:20;;;;;;;26.70;12.40;;;;;;;6.22;75.92;100037.73;102153;1299;60409;-65
2023/01/07 12:47:10;;;;;;;26.90;13.80;;;;;;;6.33;76.11;100036.58;102367;1299;73608;-66
2023/01/07 12:50:39;;;;;;;25.40;12.70;;;;;;;6.19;76.01;100028.40;102229;1296;68562;-64
2023/01/07 12:53:41;;;;;;;28.70;13.20;;;;;;;5.90;76.64;100037.45;102354;1291;73730;-66
2023/01/07 12:56:48;;;;;;;33.40;13.30;;;;;;;5.62;77.74;100043.52;102189;1299;59848;-67
2023/01/07 13:00:03;;;;;;;29.00;14.30;;;;;;;5.39;79.19;100043.20;102423;1295;60009;-67
2023/01/07 13:03:23;;;;;;;30.00;13.00;;;;;;;5.19;80.53;100040.98;102215;1291;72726;-68
2023/01/07 13:07:01;;;;;;;31.90;14.50;;;;;;;5.05;81.61;100046.84;102443;1299;68892;-67
2023/01/07 13:10:01;;;;;;;33.60;14.40;;;;;;;4.90;82.13;100044.11;102289;1292;71611;-66
2023/01/07 13:12:56;;;;;;;33.20;14.00;;;;;;;4.79;83.04;100039.42;102365;1298;59637;-65
2023/01/07 13:15:47;;;;;;;33.20;14.60;;;;;;;4.66;83.23;100042.06;102357;1299;60903;-65
2023/01/07 13:18:35;;;;;;;34.60;15.00;;;;;;;4.54;83.66;100039.17;102532;1297;72163;-66
2023/01/07 13:21:23;;;;;;;40.30;14.60;;;;;;;4.42;84.51;100033.70;102523;1291;67185;-67
2023/01/07 13:24:35;;;;;;;32.50;13.50;;;;;;;4.33;85.06;100033.98;102397;1288;71566;-68